Terminal Aerodrome Forecast
Issued by NWS

Home | Current Version | Previous Version | Text Only | Print | Product List | Glossary On
Versions: 1 2 3 4 5 6 7 8 9 10 11
000
FTUS45 KGGW 281700
TAFSDY
TAF
KSDY 281727Z 2818/2918 36006KT P6SM VCSH OVC012
     FM282100 01008KT P6SM OVC015
     FM290800 33008KT P6SM OVC050
      AMD LTD TO CLD VIS AND WIND=

USA.gov is the U.S. government's official web portal to all federal, state and local government web resources and services.